createdAt,value
2024-05-09T00:00:46.516Z,6.40
2024-05-09T00:01:46.514Z,5.60
2024-05-09T00:02:46.789Z,7.30
2024-05-09T00:03:47.015Z,6.20
2024-05-09T00:04:47.217Z,5.80
2024-05-09T00:05:47.438Z,6.20
2024-05-09T00:06:47.476Z,6.60
2024-05-09T00:07:47.675Z,6.90
2024-05-09T00:08:47.807Z,6.30
2024-05-09T00:09:47.992Z,5.60
2024-05-09T00:10:48.310Z,5.80
2024-05-09T00:11:48.445Z,6.40
2024-05-09T00:12:48.509Z,6.00
2024-05-09T00:13:48.706Z,5.80
2024-05-09T00:14:48.848Z,5.80
2024-05-09T00:15:49.037Z,7.00
2024-05-09T00:16:49.292Z,5.40
2024-05-09T00:17:49.704Z,5.70
2024-05-09T00:18:49.694Z,5.90
2024-05-09T00:19:49.804Z,6.00
2024-05-09T00:20:50.005Z,6.40
2024-05-09T00:21:50.126Z,6.00
2024-05-09T00:22:50.316Z,5.50
2024-05-09T00:23:50.484Z,5.80
2024-05-09T00:24:50.675Z,6.00
2024-05-09T00:25:51.005Z,5.20
2024-05-09T00:26:51.067Z,4.50
2024-05-09T00:27:51.239Z,5.40
2024-05-09T00:28:51.443Z,5.90
2024-05-09T00:29:51.587Z,6.20
2024-05-09T00:30:51.807Z,5.70
2024-05-09T00:31:52.032Z,4.70
2024-05-09T00:32:52.366Z,7.00
2024-05-09T00:33:52.387Z,6.00
2024-05-09T00:34:52.550Z,6.00
2024-05-09T00:35:52.703Z,6.90
2024-05-09T00:36:52.847Z,7.20
2024-05-09T00:37:53.010Z,7.10
2024-05-09T00:38:53.182Z,6.20
2024-05-09T00:39:53.358Z,5.30
2024-05-09T00:41:53.707Z,5.30
2024-05-09T00:42:53.887Z,6.20
2024-05-09T00:43:54.067Z,5.00
2024-05-09T00:44:54.235Z,6.70
2024-05-09T00:45:54.411Z,6.00
2024-05-09T00:46:54.682Z,7.80
2024-05-09T00:47:54.961Z,5.90
2024-05-09T00:48:55.059Z,5.40
2024-05-09T00:49:55.204Z,5.60
2024-05-09T00:50:55.362Z,6.40
2024-05-09T00:51:55.490Z,5.30
2024-05-09T00:52:55.723Z,5.50
2024-05-09T00:53:55.888Z,5.10
2024-05-09T00:54:56.044Z,6.30
2024-05-09T00:55:56.256Z,5.60
2024-05-09T00:56:56.412Z,4.90
2024-05-09T00:57:56.600Z,5.60
2024-05-09T00:58:56.822Z,4.80
2024-05-09T00:59:56.975Z,5.70
2024-05-09T01:00:57.246Z,5.10
2024-05-09T01:01:57.413Z,5.50
2024-05-09T01:02:57.663Z,5.60
2024-05-09T01:03:57.836Z,5.90
2024-05-09T01:04:57.986Z,5.60
2024-05-09T01:05:58.215Z,5.50
2024-05-09T01:06:58.214Z,5.20
2024-05-09T01:07:58.509Z,6.60
2024-05-09T01:08:58.558Z,5.00
2024-05-09T01:09:58.744Z,5.20
2024-05-09T01:10:59.009Z,5.40
2024-05-09T01:11:59.210Z,5.80
2024-05-09T01:12:59.292Z,6.60
2024-05-09T01:13:59.520Z,5.40
2024-05-09T01:14:59.661Z,6.10
2024-05-09T01:15:59.882Z,5.30
2024-05-09T01:17:00.075Z,6.20
2024-05-09T01:18:00.486Z,6.60
2024-05-09T01:19:00.459Z,4.90
2024-05-09T01:20:00.730Z,5.30
2024-05-09T01:21:00.807Z,5.20
2024-05-09T01:22:00.981Z,5.50
2024-05-09T01:23:01.266Z,7.60
2024-05-09T01:24:01.335Z,5.30
2024-05-09T01:25:01.506Z,6.10
2024-05-09T01:26:01.709Z,6.50
2024-05-09T01:27:01.871Z,5.40
2024-05-09T01:28:02.131Z,4.90
2024-05-09T01:29:02.270Z,4.50
2024-05-09T01:30:05.361Z,6.10
2024-05-09T01:31:02.601Z,5.90
2024-05-09T01:32:02.917Z,5.30
2024-05-09T01:33:03.181Z,6.20
2024-05-09T01:34:03.269Z,6.00
2024-05-09T01:35:03.354Z,4.90
2024-05-09T01:36:03.520Z,5.10
2024-05-09T01:37:03.689Z,5.30
2024-05-09T01:38:04.116Z,6.10
2024-05-09T01:39:04.055Z,5.20
2024-05-09T01:40:07.339Z,5.60
2024-05-09T01:41:05.408Z,5.50
2024-05-09T01:42:05.047Z,5.90
2024-05-09T01:43:04.875Z,5.10
2024-05-09T01:44:04.975Z,5.10
2024-05-09T01:45:05.143Z,5.00
2024-05-09T01:46:05.306Z,5.80
2024-05-09T01:47:05.554Z,6.00
2024-05-09T01:48:05.880Z,5.80
2024-05-09T01:49:06.228Z,4.30
2024-05-09T01:50:09.005Z,5.50
2024-05-09T01:51:06.252Z,5.50
2024-05-09T01:52:06.376Z,4.40
2024-05-09T01:54:21.650Z,5.70
2024-05-09T01:55:21.827Z,5.80
2024-05-09T01:56:22.034Z,6.30
2024-05-09T01:57:22.207Z,4.50
2024-05-09T01:58:22.869Z,5.00
2024-05-09T01:59:22.662Z,5.40
2024-05-09T02:00:33.218Z,6.60
2024-05-09T02:01:24.024Z,5.20
2024-05-09T02:02:23.181Z,4.70
2024-05-09T02:03:23.521Z,4.90
2024-05-09T02:04:23.776Z,4.80
2024-05-09T02:05:23.746Z,5.30
2024-05-09T02:06:23.859Z,5.10
2024-05-09T02:07:24.048Z,6.50
2024-05-09T02:08:24.277Z,5.50
2024-05-09T02:09:24.406Z,5.10
2024-05-09T02:10:31.742Z,6.30
2024-05-09T02:11:25.864Z,4.90
2024-05-09T02:12:25.175Z,5.20
2024-05-09T02:13:25.142Z,5.60
2024-05-09T02:14:25.419Z,5.90
2024-05-09T02:15:25.472Z,5.60
2024-05-09T02:16:25.653Z,5.70
2024-05-09T02:17:25.966Z,7.30
2024-05-09T02:18:26.103Z,6.20
2024-05-09T02:19:26.318Z,5.10
2024-05-09T02:20:33.864Z,6.00
2024-05-09T02:21:27.533Z,6.30
2024-05-09T02:22:26.739Z,5.70
2024-05-09T02:23:26.944Z,5.40
2024-05-09T02:24:27.101Z,4.50
2024-05-09T02:25:27.276Z,6.50
2024-05-09T02:26:27.532Z,5.30
2024-05-09T02:27:27.626Z,5.30
2024-05-09T02:28:27.827Z,5.20
2024-05-09T02:29:28.038Z,6.30
2024-05-09T02:31:28.333Z,6.20
2024-05-09T02:32:28.679Z,5.50
2024-05-09T02:33:28.936Z,5.00
2024-05-09T02:34:28.942Z,5.50
2024-05-09T02:35:30.046Z,5.80
2024-05-09T02:36:29.221Z,5.60
2024-05-09T02:37:29.386Z,5.20
2024-05-09T02:38:29.676Z,6.30
2024-05-09T02:39:29.732Z,5.30
2024-05-09T02:40:36.633Z,5.80
2024-05-09T02:41:31.153Z,5.40
2024-05-09T02:42:30.270Z,6.80
2024-05-09T02:43:30.475Z,6.20
2024-05-09T02:44:30.688Z,5.40
2024-05-09T02:45:30.910Z,6.20
2024-05-09T02:46:31.006Z,5.80
2024-05-09T02:47:31.292Z,5.70
2024-05-09T02:48:31.500Z,4.90
2024-05-09T02:49:31.561Z,5.90
2024-05-09T02:50:37.877Z,5.60
2024-05-09T02:51:32.874Z,5.00
2024-05-09T02:52:32.085Z,5.50
2024-05-09T02:53:32.442Z,4.90
2024-05-09T02:54:32.405Z,5.60
2024-05-09T02:55:32.707Z,5.60
2024-05-09T02:56:32.809Z,5.90
2024-05-09T02:57:32.955Z,5.60
2024-05-09T02:58:34.095Z,5.30
2024-05-09T02:59:33.349Z,6.10
2024-05-09T03:00:39.254Z,6.10
2024-05-09T03:01:34.703Z,5.70
2024-05-09T03:02:34.034Z,5.50
2024-05-09T03:03:34.366Z,5.70
2024-05-09T03:04:34.375Z,6.90
2024-05-09T03:05:34.695Z,7.50
2024-05-09T03:06:34.685Z,6.20
2024-05-09T03:07:34.807Z,5.40
2024-05-09T03:08:35.240Z,6.00
2024-05-09T03:09:35.310Z,5.90
2024-05-09T03:10:37.584Z,6.20
2024-05-09T03:11:35.658Z,6.10
2024-05-09T03:12:37.980Z,6.60
2024-05-09T03:13:35.907Z,5.80
2024-05-09T03:14:36.196Z,5.90
2024-05-09T03:15:36.308Z,5.30
2024-05-09T03:16:36.435Z,5.00
2024-05-09T03:17:36.910Z,5.30
2024-05-09T03:18:36.854Z,6.80
2024-05-09T03:19:37.004Z,6.40
2024-05-09T03:20:37.461Z,5.40
2024-05-09T03:21:37.298Z,6.10
2024-05-09T03:22:37.462Z,6.30
2024-05-09T03:23:37.662Z,6.50
2024-05-09T03:24:37.863Z,6.00
2024-05-09T03:25:38.114Z,6.50
2024-05-09T03:26:38.264Z,5.20
2024-05-09T03:27:38.406Z,6.30
2024-05-09T03:28:38.586Z,5.50
2024-05-09T03:29:38.788Z,5.70
2024-05-09T03:30:42.289Z,5.60
2024-05-09T03:31:39.235Z,5.70
2024-05-09T03:32:39.515Z,5.90
2024-05-09T03:33:40.289Z,6.30
2024-05-09T03:34:39.673Z,6.30
2024-05-09T03:35:39.896Z,5.70
2024-05-09T03:36:40.038Z,5.60
2024-05-09T03:37:40.207Z,5.20
2024-05-09T03:38:40.497Z,7.20
2024-05-09T03:39:40.570Z,5.70
2024-05-09T03:40:40.745Z,5.50
2024-05-09T03:41:41.011Z,5.50
2024-05-09T03:42:41.124Z,5.50
2024-05-09T03:43:41.318Z,5.80
2024-05-09T03:44:41.538Z,5.50
2024-05-09T03:45:41.639Z,6.70
2024-05-09T03:46:41.813Z,5.20
2024-05-09T03:47:42.438Z,6.10
2024-05-09T03:48:42.283Z,5.80
2024-05-09T03:49:42.409Z,5.80
2024-05-09T03:50:42.710Z,6.00
2024-05-09T03:51:42.734Z,5.80
2024-05-09T03:52:42.915Z,8.20
2024-05-09T03:53:43.141Z,5.90
2024-05-09T03:54:43.318Z,5.50
2024-05-09T03:55:43.495Z,5.60
2024-05-09T03:56:43.695Z,5.50
2024-05-09T03:57:43.827Z,6.90
2024-05-09T03:58:44.077Z,6.40
2024-05-09T03:59:44.272Z,5.70
2024-05-09T04:00:44.492Z,6.10
2024-05-09T04:01:44.915Z,7.40
2024-05-09T04:02:44.845Z,6.20
2024-05-09T04:03:45.201Z,6.00
2024-05-09T04:04:45.258Z,6.60
2024-05-09T04:05:45.353Z,5.20
2024-05-09T04:06:45.443Z,5.80
2024-05-09T04:07:45.678Z,5.70
2024-05-09T04:08:45.826Z,7.10
2024-05-09T04:09:45.996Z,6.10
2024-05-09T04:10:46.260Z,6.40
2024-05-09T04:11:46.412Z,6.00
2024-05-09T04:12:46.513Z,5.70
2024-05-09T04:13:46.743Z,6.50
2024-05-09T04:14:46.890Z,6.00
2024-05-09T04:15:47.077Z,5.80
2024-05-09T04:16:47.329Z,6.20
2024-05-09T04:17:47.650Z,5.90
2024-05-09T04:18:47.747Z,5.10
2024-05-09T04:19:48.805Z,6.80
2024-05-09T04:20:48.013Z,6.40
2024-05-09T04:21:48.172Z,5.50
2024-05-09T04:22:48.383Z,5.50
2024-05-09T04:23:48.544Z,6.50
2024-05-09T04:24:48.686Z,5.90
2024-05-09T04:25:48.921Z,6.60
2024-05-09T04:26:49.083Z,6.60
2024-05-09T04:27:49.231Z,6.50
2024-05-09T04:28:49.465Z,6.10
2024-05-09T04:29:49.644Z,6.10
2024-05-09T04:30:49.857Z,6.10
2024-05-09T04:31:50.066Z,6.50
2024-05-09T04:32:50.313Z,6.00
2024-05-09T04:33:50.517Z,6.00
2024-05-09T04:34:50.651Z,5.60
2024-05-09T04:35:50.776Z,6.50
2024-05-09T04:36:50.926Z,6.20
2024-05-09T04:37:51.178Z,6.00
2024-05-09T04:38:51.442Z,6.10
2024-05-09T04:39:51.506Z,5.90
2024-05-09T04:40:51.756Z,6.70
2024-05-09T04:41:51.875Z,6.10
2024-05-09T04:42:52.026Z,7.70
2024-05-09T04:43:52.218Z,6.30
2024-05-09T04:44:55.600Z,6.00
2024-05-09T04:45:53.618Z,7.20
2024-05-09T04:46:52.786Z,6.70
2024-05-09T04:47:53.229Z,5.50
2024-05-09T04:48:53.198Z,6.10
2024-05-09T04:49:53.367Z,7.00
2024-05-09T04:50:53.550Z,6.60
2024-05-09T04:51:53.699Z,5.70
2024-05-09T04:52:53.928Z,7.10
2024-05-09T04:53:54.060Z,6.00
2024-05-09T04:54:54.794Z,5.60
2024-05-09T04:55:54.478Z,6.60
2024-05-09T04:56:54.622Z,6.40
2024-05-09T04:57:54.810Z,7.20
2024-05-09T04:58:55.973Z,5.90
2024-05-09T04:59:55.191Z,6.20
2024-05-09T05:00:55.418Z,8.20
2024-05-09T05:01:55.683Z,6.80
2024-05-09T05:02:55.892Z,5.40
2024-05-09T05:03:56.220Z,6.40
2024-05-09T05:04:56.224Z,7.00
2024-05-09T05:05:56.398Z,6.00
2024-05-09T05:06:58.370Z,6.10
2024-05-09T05:07:56.735Z,6.00
2024-05-09T05:08:56.876Z,7.10
2024-05-09T05:09:57.055Z,6.30
2024-05-09T05:10:57.390Z,6.60
2024-05-09T05:11:57.532Z,5.60
2024-05-09T05:12:57.605Z,6.30
2024-05-09T05:13:57.830Z,5.20
2024-05-09T05:14:57.970Z,6.30
2024-05-09T05:15:58.699Z,6.40
2024-05-09T05:16:58.395Z,6.50
2024-05-09T05:17:59.644Z,5.90
2024-05-09T05:18:58.764Z,5.50
2024-05-09T05:19:58.986Z,5.70
2024-05-09T05:20:59.281Z,6.50
2024-05-09T05:21:59.266Z,5.80
2024-05-09T05:22:59.567Z,6.00
2024-05-09T05:23:59.637Z,5.10
2024-05-09T05:24:59.822Z,5.20
2024-05-09T05:26:00.081Z,5.70
2024-05-09T05:27:00.201Z,6.50
2024-05-09T05:28:00.362Z,5.40
2024-05-09T05:29:00.654Z,5.80
2024-05-09T05:30:00.752Z,5.80
2024-05-09T05:31:00.973Z,6.30
2024-05-09T05:32:02.198Z,5.20
2024-05-09T05:33:01.581Z,6.20
2024-05-09T05:34:01.555Z,7.10
2024-05-09T05:35:01.767Z,5.80
2024-05-09T05:36:01.938Z,5.10
2024-05-09T05:37:02.113Z,6.00
2024-05-09T05:38:02.382Z,6.20
2024-05-09T05:39:02.453Z,5.70
2024-05-09T05:40:03.258Z,6.90
2024-05-09T05:41:02.967Z,5.90
2024-05-09T05:42:02.995Z,5.90
2024-05-09T05:43:03.219Z,6.60
2024-05-09T05:44:03.460Z,5.40
2024-05-09T05:45:06.138Z,6.70
2024-05-09T05:46:03.777Z,5.30
2024-05-09T05:47:03.952Z,5.10
2024-05-09T05:48:04.520Z,6.30
2024-05-09T05:49:04.368Z,6.10
2024-05-09T05:50:09.260Z,5.80
2024-05-09T05:51:05.902Z,6.40
2024-05-09T05:52:04.896Z,6.90
2024-05-09T05:53:05.097Z,6.10
2024-05-09T05:54:05.243Z,7.00
2024-05-09T05:55:05.445Z,6.40
2024-05-09T05:56:05.710Z,6.60
2024-05-09T05:57:06.879Z,5.60
2024-05-09T05:58:06.048Z,5.50
2024-05-09T05:59:06.350Z,6.10
2024-05-09T06:00:09.272Z,6.30
2024-05-09T06:01:06.620Z,6.20
2024-05-09T06:02:06.863Z,6.10
2024-05-09T06:03:08.616Z,6.20
2024-05-09T06:04:07.169Z,5.90
2024-05-09T06:05:07.375Z,6.20
2024-05-09T06:06:07.629Z,5.60
2024-05-09T06:07:07.713Z,4.60
2024-05-09T06:08:07.912Z,5.90
2024-05-09T06:09:07.999Z,6.10
2024-05-09T06:10:17.004Z,6.10
2024-05-09T06:11:09.563Z,5.80
2024-05-09T06:12:08.621Z,5.90
2024-05-09T06:13:08.728Z,5.40
2024-05-09T06:14:08.951Z,5.50
2024-05-09T06:15:09.064Z,5.10
2024-05-09T06:16:09.252Z,5.00
2024-05-09T06:17:09.585Z,6.00
2024-05-09T06:18:11.011Z,5.20
2024-05-09T06:19:09.929Z,6.00
2024-05-09T06:20:20.101Z,5.50
2024-05-09T06:21:11.243Z,5.80
2024-05-09T06:22:10.390Z,5.00
2024-05-09T06:23:10.853Z,4.70
2024-05-09T06:24:10.741Z,4.00
2024-05-09T06:25:10.919Z,5.10
2024-05-09T06:26:11.129Z,4.60
2024-05-09T06:27:11.306Z,4.60
2024-05-09T06:28:11.613Z,6.10
2024-05-09T06:29:11.702Z,6.00
2024-05-09T06:30:24.857Z,8.10
2024-05-09T06:31:13.002Z,6.20
2024-05-09T06:32:12.329Z,7.10
2024-05-09T06:33:14.591Z,5.00
2024-05-09T06:34:12.811Z,5.80
2024-05-09T06:35:12.785Z,6.90
2024-05-09T06:36:12.972Z,5.70
2024-05-09T06:37:13.166Z,6.20
2024-05-09T06:38:13.537Z,5.90
2024-05-09T06:39:13.524Z,5.60
2024-05-09T06:40:17.456Z,4.70
2024-05-09T06:41:14.047Z,5.10
2024-05-09T06:42:14.094Z,7.00
2024-05-09T06:43:14.972Z,6.90
2024-05-09T06:44:14.459Z,5.60
2024-05-09T06:45:14.617Z,5.90
2024-05-09T06:46:14.803Z,5.00
2024-05-09T06:47:14.992Z,6.10
2024-05-09T06:48:15.772Z,6.20
2024-05-09T06:49:15.431Z,4.70
2024-05-09T06:50:23.370Z,5.40
2024-05-09T06:51:16.838Z,4.70
2024-05-09T06:52:15.833Z,5.90
2024-05-09T06:53:16.171Z,4.90
2024-05-09T06:54:16.209Z,5.20
2024-05-09T06:55:16.415Z,4.80
2024-05-09T06:56:17.615Z,5.10
2024-05-09T06:57:16.802Z,4.50
2024-05-09T06:58:16.967Z,6.10
2024-05-09T06:59:17.150Z,5.20
2024-05-09T07:00:26.619Z,5.50
2024-05-09T07:01:18.590Z,5.90
2024-05-09T07:02:17.758Z,5.00
2024-05-09T07:03:19.270Z,5.10
2024-05-09T07:04:18.239Z,4.10
2024-05-09T07:05:18.264Z,5.10
2024-05-09T07:06:18.501Z,4.90
2024-05-09T07:07:18.607Z,5.40
2024-05-09T07:08:19.438Z,6.00
2024-05-09T07:09:18.993Z,5.00
2024-05-09T07:10:28.305Z,4.90
2024-05-09T07:11:20.477Z,5.20
2024-05-09T07:12:19.567Z,6.80
2024-05-09T07:13:19.690Z,5.00
2024-05-09T07:14:19.866Z,6.00
2024-05-09T07:15:20.051Z,5.00
2024-05-09T07:16:20.228Z,4.50
2024-05-09T07:17:21.504Z,5.70
2024-05-09T07:18:20.945Z,5.20
2024-05-09T07:19:20.798Z,4.80
2024-05-09T07:20:31.644Z,4.80
2024-05-09T07:21:22.153Z,5.30
2024-05-09T07:22:21.301Z,6.30
2024-05-09T07:23:21.558Z,4.80
2024-05-09T07:24:21.717Z,5.10
2024-05-09T07:25:21.872Z,5.00
2024-05-09T07:26:22.097Z,4.80
2024-05-09T07:27:22.285Z,4.60
2024-05-09T07:28:22.484Z,4.40
2024-05-09T07:29:22.677Z,5.20
2024-05-09T07:30:27.806Z,6.10
2024-05-09T07:31:23.981Z,5.00
2024-05-09T07:32:23.319Z,4.10
2024-05-09T07:33:24.475Z,4.70
2024-05-09T07:34:23.700Z,4.80
2024-05-09T07:35:23.718Z,4.90
2024-05-09T07:36:23.873Z,4.90
2024-05-09T07:37:24.026Z,5.00
2024-05-09T07:38:24.310Z,5.20
2024-05-09T07:39:24.420Z,6.60
2024-05-09T07:40:32.570Z,4.60
2024-05-09T07:41:25.832Z,5.70
2024-05-09T07:42:24.970Z,4.00
2024-05-09T07:43:26.113Z,5.30
2024-05-09T07:44:25.346Z,5.40
2024-05-09T07:45:43.263Z,4.20
2024-05-09T07:47:14.608Z,5.70
2024-05-09T07:53:32.306Z,5.50
2024-05-09T07:53:39.886Z,4.50
2024-05-09T07:55:43.462Z,3.80
2024-05-09T07:56:43.604Z,4.30
2024-05-09T07:57:43.676Z,4.00
2024-05-09T07:58:43.836Z,5.60
2024-05-09T07:59:43.988Z,5.80
2024-05-09T08:00:44.246Z,6.30
2024-05-09T08:01:44.450Z,4.20
2024-05-09T08:02:44.601Z,5.60
2024-05-09T08:03:45.133Z,4.90
2024-05-09T08:04:45.013Z,6.00
2024-05-09T08:05:45.177Z,3.50
2024-05-09T08:06:45.394Z,4.90
2024-05-09T08:07:45.522Z,4.40
2024-05-09T08:08:45.741Z,4.30
2024-05-09T08:09:45.930Z,5.30
2024-05-09T08:10:46.259Z,4.30
2024-05-09T08:11:46.302Z,4.70
2024-05-09T08:12:46.510Z,5.00
2024-05-09T08:13:46.643Z,4.30
2024-05-09T08:14:46.800Z,4.50
2024-05-09T08:15:47.058Z,5.30
2024-05-09T08:16:47.163Z,4.60
2024-05-09T08:17:47.421Z,4.60
2024-05-09T08:18:47.700Z,4.80
2024-05-09T08:19:47.751Z,5.20
2024-05-09T08:20:47.932Z,4.80
2024-05-09T08:21:48.140Z,3.80
2024-05-09T08:22:48.290Z,5.20
2024-05-09T08:23:48.488Z,6.80
2024-05-09T08:24:48.689Z,5.70
2024-05-09T08:25:48.841Z,5.20
2024-05-09T08:26:49.009Z,4.50
2024-05-09T08:27:49.297Z,4.60
2024-05-09T08:28:49.373Z,5.70
2024-05-09T08:29:49.583Z,4.70
2024-05-09T08:30:49.931Z,4.90
2024-05-09T08:31:49.957Z,5.00
2024-05-09T08:32:50.164Z,4.30
2024-05-09T08:33:50.511Z,4.50
2024-05-09T08:34:50.543Z,4.20
2024-05-09T08:35:50.652Z,4.40
2024-05-09T08:36:50.883Z,5.00
2024-05-09T08:37:51.100Z,4.30
2024-05-09T08:38:51.223Z,5.10
2024-05-09T08:39:51.504Z,5.70
2024-05-09T08:40:51.630Z,3.50
2024-05-09T08:41:51.809Z,4.50
2024-05-09T08:42:52.047Z,4.40
2024-05-09T08:43:52.147Z,4.70
2024-05-09T08:44:52.334Z,5.00
2024-05-09T08:45:52.568Z,4.90
2024-05-09T08:46:52.740Z,4.20
2024-05-09T08:47:52.973Z,4.10
2024-05-09T08:48:53.260Z,4.00
2024-05-09T08:49:53.271Z,3.80
2024-05-09T08:50:53.605Z,3.80
2024-05-09T08:51:53.654Z,3.90
2024-05-09T08:52:53.814Z,4.70
2024-05-09T08:53:54.002Z,5.40
2024-05-09T08:54:54.379Z,3.70
2024-05-09T08:55:54.330Z,3.70
2024-05-09T08:56:54.653Z,4.40
2024-05-09T08:57:54.778Z,3.50
2024-05-09T08:58:54.896Z,4.00
2024-05-09T08:59:55.096Z,5.80
2024-05-09T09:00:55.413Z,4.30
2024-05-09T09:01:55.661Z,3.60
2024-05-09T09:02:55.665Z,4.30
2024-05-09T09:03:55.884Z,5.10
2024-05-09T09:04:56.072Z,4.60
2024-05-09T09:05:56.193Z,4.70
2024-05-09T09:06:58.176Z,4.70
2024-05-09T09:07:56.580Z,4.20
2024-05-09T09:08:56.765Z,4.90
2024-05-09T09:09:56.983Z,4.00
2024-05-09T09:10:57.176Z,4.20
2024-05-09T09:11:57.399Z,3.80
2024-05-09T09:12:57.509Z,4.10
2024-05-09T09:13:57.694Z,5.20
2024-05-09T09:14:57.863Z,4.00
2024-05-09T09:15:58.502Z,3.20
2024-05-09T09:16:58.219Z,4.10
2024-05-09T09:17:58.555Z,3.50
2024-05-09T09:18:58.647Z,3.60
2024-05-09T09:19:58.815Z,4.00
2024-05-09T09:20:58.966Z,3.90
2024-05-09T09:21:59.144Z,4.70
2024-05-09T09:22:59.331Z,3.30
2024-05-09T09:23:59.482Z,3.30
2024-05-09T09:24:59.707Z,3.40
2024-05-09T09:25:59.872Z,4.10
2024-05-09T09:27:00.024Z,3.50
2024-05-09T09:28:00.296Z,5.30
2024-05-09T09:29:00.404Z,3.70
2024-05-09T09:30:00.592Z,3.90
2024-05-09T09:31:00.850Z,4.00
2024-05-09T09:32:00.939Z,3.80
2024-05-09T09:33:01.214Z,3.70
2024-05-09T09:34:01.601Z,3.20
2024-05-09T09:35:01.681Z,3.50
2024-05-09T09:36:01.659Z,4.20
2024-05-09T09:37:01.873Z,4.00
2024-05-09T09:38:02.128Z,3.60
2024-05-09T09:39:02.209Z,3.70
2024-05-09T09:40:02.562Z,3.30
2024-05-09T09:41:02.785Z,3.60
2024-05-09T09:42:02.775Z,4.30
2024-05-09T09:43:03.026Z,4.00
2024-05-09T09:44:03.157Z,3.90
2024-05-09T09:45:05.542Z,3.40
2024-05-09T09:46:03.628Z,3.60
2024-05-09T09:47:03.775Z,5.00
2024-05-09T09:48:04.094Z,4.10
2024-05-09T09:49:04.269Z,3.60
2024-05-09T09:50:09.399Z,3.80
2024-05-09T09:51:05.519Z,3.80
2024-05-09T09:52:05.285Z,4.20
2024-05-09T09:53:04.869Z,4.40
2024-05-09T09:54:05.012Z,3.90
2024-05-09T09:55:05.200Z,4.00
2024-05-09T09:56:05.375Z,3.40
2024-05-09T09:57:05.541Z,3.50
2024-05-09T09:58:07.707Z,4.40
2024-05-09T09:59:05.912Z,4.40
2024-05-09T10:00:11.587Z,3.70
2024-05-09T10:01:07.472Z,5.10
2024-05-09T10:02:06.699Z,4.30
2024-05-09T10:03:06.722Z,5.50
2024-05-09T10:04:06.895Z,4.80
2024-05-09T10:05:07.144Z,4.80
2024-05-09T10:06:07.233Z,4.40
2024-05-09T10:07:07.535Z,5.10
2024-05-09T10:08:07.630Z,5.60
2024-05-09T10:09:07.784Z,4.10
2024-05-09T10:10:10.987Z,4.50
2024-05-09T10:11:09.210Z,4.90
2024-05-09T10:12:09.493Z,4.10
2024-05-09T10:13:08.962Z,4.80
2024-05-09T10:14:08.733Z,4.80
2024-05-09T10:15:08.895Z,5.20
2024-05-09T10:16:09.227Z,4.00
2024-05-09T10:17:09.283Z,4.40
2024-05-09T10:18:09.728Z,3.90
2024-05-09T10:19:09.760Z,4.40
2024-05-09T10:20:18.203Z,6.40
2024-05-09T10:21:11.010Z,4.80
2024-05-09T10:22:10.280Z,4.00
2024-05-09T10:23:10.409Z,3.90
2024-05-09T10:24:10.567Z,4.20
2024-05-09T10:25:10.756Z,4.00
2024-05-09T10:26:10.935Z,4.80
2024-05-09T10:27:11.121Z,3.20
2024-05-09T10:28:11.385Z,4.50
2024-05-09T10:29:11.498Z,3.60
2024-05-09T10:30:17.728Z,3.90
2024-05-09T10:31:13.300Z,4.40
2024-05-09T10:32:12.043Z,5.10
2024-05-09T10:33:12.295Z,4.60
2024-05-09T10:34:12.450Z,4.50
2024-05-09T10:35:12.611Z,4.50
2024-05-09T10:36:12.782Z,3.40
2024-05-09T10:37:12.967Z,4.40
2024-05-09T10:38:13.098Z,4.40
2024-05-09T10:39:13.283Z,3.80
2024-05-09T10:40:19.918Z,5.40
2024-05-09T10:41:14.669Z,4.10
2024-05-09T10:42:13.861Z,4.60
2024-05-09T10:43:14.096Z,4.80
2024-05-09T10:44:14.216Z,4.30
2024-05-09T10:45:14.405Z,5.20
2024-05-09T10:46:14.844Z,4.10
2024-05-09T10:47:14.825Z,4.70
2024-05-09T10:48:15.183Z,4.50
2024-05-09T10:49:15.353Z,4.10
2024-05-09T10:50:21.980Z,3.80
2024-05-09T10:51:16.589Z,4.50
2024-05-09T10:52:15.800Z,3.70
2024-05-09T10:53:15.915Z,4.40
2024-05-09T10:54:16.188Z,4.30
2024-05-09T10:55:16.332Z,3.40
2024-05-09T10:56:16.999Z,4.50
2024-05-09T10:57:16.650Z,4.90
2024-05-09T10:58:16.973Z,3.70
2024-05-09T10:59:17.030Z,4.10
2024-05-09T11:00:27.073Z,3.80
2024-05-09T11:01:18.479Z,4.30
2024-05-09T11:02:17.703Z,4.90
2024-05-09T11:03:17.839Z,3.60
2024-05-09T11:04:18.050Z,3.50
2024-05-09T11:05:18.222Z,3.60
2024-05-09T11:06:18.348Z,4.80
2024-05-09T11:07:18.636Z,4.50
2024-05-09T11:08:18.727Z,4.60
2024-05-09T11:09:18.925Z,4.30
2024-05-09T11:10:27.299Z,3.70
2024-05-09T11:11:20.397Z,3.60
2024-05-09T11:12:21.402Z,3.60
2024-05-09T11:13:19.750Z,3.30
2024-05-09T11:14:19.860Z,4.20
2024-05-09T11:15:20.067Z,3.40
2024-05-09T11:16:20.907Z,3.60
2024-05-09T11:17:20.634Z,3.80
2024-05-09T11:18:24.237Z,3.40
2024-05-09T11:19:20.999Z,3.00
2024-05-09T11:20:26.939Z,4.00
2024-05-09T11:21:22.160Z,4.20
2024-05-09T11:22:21.394Z,3.80
2024-05-09T11:23:21.490Z,4.00
2024-05-09T11:24:21.695Z,3.10
2024-05-09T11:25:21.909Z,3.00
2024-05-09T11:26:22.391Z,3.60
2024-05-09T11:27:22.241Z,4.50
2024-05-09T11:28:22.432Z,2.90
2024-05-09T11:29:22.589Z,3.50
2024-05-09T11:30:29.773Z,3.30
2024-05-09T11:31:24.100Z,3.90
2024-05-09T11:32:23.246Z,4.00
2024-05-09T11:33:23.380Z,3.60
2024-05-09T11:34:23.606Z,3.50
2024-05-09T11:35:23.750Z,4.10
2024-05-09T11:36:23.945Z,3.20
2024-05-09T11:37:24.318Z,3.40
2024-05-09T11:38:24.311Z,3.50
2024-05-09T11:39:24.501Z,3.20
2024-05-09T11:40:28.166Z,3.80
2024-05-09T11:41:25.863Z,3.60
2024-05-09T11:42:25.063Z,3.40
2024-05-09T11:43:25.357Z,3.70
2024-05-09T11:44:25.368Z,2.90
2024-05-09T11:45:25.586Z,2.70
2024-05-09T11:46:25.883Z,4.00
2024-05-09T11:47:26.027Z,3.70
2024-05-09T11:48:26.640Z,4.00
2024-05-09T11:49:27.182Z,2.30
2024-05-09T11:50:30.173Z,3.30
2024-05-09T11:51:27.759Z,4.00
2024-05-09T11:52:26.885Z,4.30
2024-05-09T11:53:27.069Z,3.40
2024-05-09T11:54:27.236Z,2.70
2024-05-09T11:55:28.445Z,3.90
2024-05-09T11:56:27.600Z,3.70
2024-05-09T11:57:27.954Z,3.20
2024-05-09T11:58:28.014Z,3.40
2024-05-09T11:59:28.183Z,3.60
2024-05-09T12:00:34.321Z,3.10
2024-05-09T12:01:29.687Z,3.80
2024-05-09T12:02:28.879Z,2.70
2024-05-09T12:03:28.998Z,2.90
2024-05-09T12:04:29.206Z,4.10
2024-05-09T12:05:29.526Z,2.70
2024-05-09T12:06:29.591Z,3.30
2024-05-09T12:07:29.742Z,2.90
2024-05-09T12:08:29.825Z,3.60
2024-05-09T12:09:30.079Z,2.70
2024-05-09T12:10:33.714Z,3.60
2024-05-09T12:11:31.447Z,3.00
2024-05-09T12:12:30.671Z,3.20
2024-05-09T12:13:30.860Z,3.40
2024-05-09T12:14:30.963Z,3.00
2024-05-09T12:15:31.205Z,3.50
2024-05-09T12:16:31.822Z,4.30
2024-05-09T12:17:31.623Z,2.70
2024-05-09T12:18:31.783Z,3.50
2024-05-09T12:19:31.935Z,2.70
2024-05-09T12:20:37.246Z,3.60
2024-05-09T12:21:33.280Z,3.30
2024-05-09T12:22:32.490Z,3.40
2024-05-09T12:23:32.657Z,3.80
2024-05-09T12:24:32.830Z,3.00
2024-05-09T12:25:33.044Z,3.30
2024-05-09T12:26:33.213Z,2.90
2024-05-09T12:27:33.463Z,3.90
2024-05-09T12:28:33.572Z,3.20
2024-05-09T12:29:36.180Z,2.50
2024-05-09T12:30:38.304Z,3.30
2024-05-09T12:31:35.159Z,3.20
2024-05-09T12:32:34.353Z,2.40
2024-05-09T12:33:34.630Z,2.20
2024-05-09T12:34:34.779Z,3.70
2024-05-09T12:35:34.873Z,3.00
2024-05-09T12:36:35.060Z,3.20
2024-05-09T12:37:35.247Z,3.60
2024-05-09T12:38:35.418Z,2.80
2024-05-09T12:39:35.628Z,3.30
2024-05-09T12:40:38.229Z,3.50
2024-05-09T12:41:35.942Z,3.20
2024-05-09T12:42:36.205Z,3.30
2024-05-09T12:43:36.327Z,3.30
2024-05-09T12:44:36.506Z,2.40
2024-05-09T12:45:37.184Z,3.90
2024-05-09T12:46:36.903Z,3.30
2024-05-09T12:47:37.165Z,2.70
2024-05-09T12:48:37.486Z,3.70
2024-05-09T12:49:37.571Z,2.80
2024-05-09T12:50:37.644Z,3.40
2024-05-09T12:51:37.855Z,3.60
2024-05-09T12:52:38.036Z,3.70
2024-05-09T12:53:39.188Z,3.30
2024-05-09T12:54:38.439Z,2.50
2024-05-09T12:55:44.796Z,3.40
2024-05-09T12:56:39.753Z,2.80
2024-05-09T12:57:38.998Z,2.50
2024-05-09T12:58:39.142Z,3.30
2024-05-09T12:59:39.295Z,3.10
2024-05-09T13:00:39.616Z,2.80
2024-05-09T13:01:39.752Z,3.20
2024-05-09T13:02:40.019Z,2.80
2024-05-09T13:03:40.248Z,3.40
2024-05-09T13:04:40.329Z,2.80
2024-05-09T13:05:40.534Z,2.90
2024-05-09T13:06:40.618Z,2.60
2024-05-09T13:07:40.826Z,3.40
2024-05-09T13:08:40.979Z,2.40
2024-05-09T13:09:41.249Z,3.20
2024-05-09T13:10:41.694Z,3.10
2024-05-09T13:11:41.581Z,2.70
2024-05-09T13:12:41.770Z,2.90
2024-05-09T13:13:41.894Z,3.20
2024-05-09T13:14:42.095Z,3.20
2024-05-09T13:15:42.350Z,2.80
2024-05-09T13:16:42.602Z,3.20
2024-05-09T13:17:42.892Z,3.10
2024-05-09T13:18:42.920Z,2.80
2024-05-09T13:19:43.015Z,3.10
2024-05-09T13:20:43.189Z,3.10
2024-05-09T13:21:43.391Z,3.20
2024-05-09T13:22:43.537Z,3.60
2024-05-09T13:23:43.712Z,2.20
2024-05-09T13:24:43.899Z,2.50
2024-05-09T13:25:44.097Z,2.70
2024-05-09T13:26:44.279Z,3.00
2024-05-09T13:27:44.513Z,3.00
2024-05-09T13:28:44.675Z,2.60
2024-05-09T13:29:44.862Z,2.50
2024-05-09T13:30:45.090Z,3.00